^^
Station Historical Data
Daily Summary for May 28, 2017 Units:  English    Metric   Both
« Previous Day
Next Day »
Daily Weekly Monthly Yearly Custom
  High: Low: Average:
Temperature: 71.2 °F 56.3 °F 62.7 °F
Dew Point: 61.7 °F 51.0 °F 56 °F
Humidity: 96% 65% 80%
Wind Speed: 5.0mph 0.0mph 0.9mph
Wind Gust: 12.0mph - -
Wind- - SW
Pressure: 29.96 in 29.89 in -
Precipitation: 0.00 in    
Historical Graphs
 
 
Tabular Data for May 28, 2017
Time Temperature Dew Point Pressure Wind Wind Speed Wind Gust Humidity Rainfall Rate (Hourly) Conditions
00:00 60.0 °F 56.1 °F 29.92 in Calm   1.0 mph 87% 0.00 in OVC
00:15 59.7 °F 56.1 °F 29.92 in Calm   2.0 mph 88% 0.00 in OVC
00:30 59.5 °F 55.9 °F 29.92 in Calm   2.0 mph 88% 0.00 in OVC
00:45 59.4 °F 55.8 °F 29.92 in Calm   1.0 mph 88% 0.00 in OVC
01:00 59.3 °F 56.1 °F 29.92 in Calm   1.0 mph 89% 0.00 in OVC
02:15 58.0 °F 55.4 °F 29.92 in Calm   1.0 mph 91% 0.00 in BKN
02:30 57.9 °F 55.6 °F 29.93 in Calm     92% 0.00 in BKN
02:45 57.8 °F 55.5 °F 29.92 in Calm     92% 0.00 in BKN
03:00 57.9 °F 55.6 °F 29.92 in Calm   1.0 mph 92% 0.00 in BKN
03:15 57.7 °F 55.4 °F 29.91 in Calm   1.0 mph 92% 0.00 in BKN
03:45 56.8 °F 54.8 °F 29.90 in Calm     93% 0.00 in BKN
04:00 56.7 °F 55.0 °F 29.90 in Calm   2.0 mph 94% 0.00 in BKN
04:15 56.7 °F 55.0 °F 29.89 in Calm   3.0 mph 94% 0.00 in BKN
04:30 56.6 °F 55.2 °F 29.91 in Calm   3.0 mph 95% 0.00 in BKN
04:45 56.5 °F 55.1 °F 29.93 in Calm   1.0 mph 95% 0.00 in BKN
05:00 56.7 °F 55.3 °F 29.92 in Calm     95% 0.00 in BKN
05:15 56.8 °F 55.4 °F 29.92 in Calm   2.0 mph 95% 0.00 in BKN
05:30 56.6 °F 55.2 °F 29.91 in Calm   1.0 mph 95% 0.00 in BKN
05:45 56.3 °F 54.9 °F 29.92 in Calm   1.0 mph 95% 0.00 in BKN
06:00 56.4 °F 55.0 °F 29.92 in Calm   2.0 mph 95% 0.00 in BKN
06:15 56.6 °F 55.2 °F 29.92 in Calm   2.0 mph 95% 0.00 in BKN
06:30 56.8 °F 55.7 °F 29.93 in Calm   1.0 mph 96% 0.00 in BKN
06:45 57.0 °F 55.9 °F 29.93 in Calm   3.0 mph 96% 0.00 in BKN
07:00 57.4 °F 56.3 °F 29.94 in Calm   2.0 mph 96% 0.00 in BKN
07:15 57.4 °F 56.0 °F 29.94 in Calm   3.0 mph 95% 0.00 in CLR
07:30 57.6 °F 56.2 °F 29.95 in Calm   3.0 mph 95% 0.00 in CLR
07:45 57.9 °F 56.5 °F 29.96 in Calm   3.0 mph 95% 0.00 in CLR
08:00 58.7 °F 57.3 °F 29.96 in Calm   2.0 mph 95% 0.00 in CLR
08:15 59.2 °F 57.5 °F 29.96 in Calm   3.0 mph 94% 0.00 in CLR
08:30 59.7 °F 57.4 °F 29.95 in Calm   4.0 mph 92% 0.00 in CLR
08:45 60.4 °F 57.8 °F 29.95 in Calm   4.0 mph 91% 0.00 in CLR
09:00 60.5 °F 57.9 °F 29.95 in NW 1.0 mph 4.0 mph 91% 0.00 in CLR
09:15 61.4 °F 58.1 °F 29.95 in Calm   4.0 mph 89% 0.00 in CLR
09:30 61.7 °F 58.5 °F 29.96 in Calm   5.0 mph 89% 0.00 in CLR
09:45 62.8 °F 58.9 °F 29.95 in WNW 1.0 mph 4.0 mph 87% 0.00 in CLR
10:00 63.8 °F 59.6 °F 29.95 in Calm   4.0 mph 86% 0.00 in CLR
10:15 65.4 °F 59.8 °F 29.95 in SW 5.0 mph 6.0 mph 82% 0.00 in BKN
10:45 67.9 °F 60.4 °F 29.94 in SSW 1.0 mph 6.0 mph 77% 0.00 in BKN
11:00 69.3 °F 61.0 °F 29.94 in West 1.0 mph 5.0 mph 75% 0.00 in BKN
11:15 69.6 °F 61.3 °F 29.94 in SSW 1.0 mph 9.0 mph 75% 0.00 in SCT
11:30 70.0 °F 61.7 °F 29.94 in Calm   12.0 mph 75% 0.00 in SCT
11:45 70.3 °F 60.8 °F 29.95 in WSW 1.0 mph 8.0 mph 72% 0.00 in SCT
12:00 69.9 °F 60.5 °F 29.95 in SW 3.0 mph 9.0 mph 72% 0.00 in SCT
12:15 71.0 °F 61.1 °F 29.95 in West 2.0 mph 8.0 mph 71% 0.00 in BKN
12:30 70.8 °F 60.5 °F 29.96 in SSW 2.0 mph 12.0 mph 70% 0.00 in BKN
12:45 71.2 °F 60.5 °F 29.96 in SW 5.0 mph 8.0 mph 69% 0.00 in BKN
13:00 70.9 °F 60.2 °F 29.96 in SSW 1.0 mph 8.0 mph 69% 0.00 in BKN
13:15 70.9 °F 60.6 °F 29.96 in SW 2.0 mph 8.0 mph 70% 0.00 in FEW
13:30 70.9 °F 60.2 °F 29.96 in SW 2.0 mph 8.0 mph 69% 0.00 in FEW
13:45 71.2 °F 60.5 °F 29.96 in SW 2.0 mph 12.0 mph 69% 0.00 in FEW
14:00 71.1 °F 60.0 °F 29.96 in SW 3.0 mph 8.0 mph 68% 0.00 in FEW
14:15 71.0 °F 59.5 °F 29.95 in SW 3.0 mph 12.0 mph 67% 0.00 in SCT
14:30 70.0 °F 58.6 °F 29.94 in SSW 5.0 mph 12.0 mph 67% 0.00 in SCT
14:45 70.3 °F 59.2 °F 29.94 in SW 3.0 mph 7.0 mph 68% 0.00 in SCT
15:00 69.9 °F 58.0 °F 29.94 in WSW 2.0 mph 12.0 mph 66% 0.00 in SCT
15:15 69.9 °F 58.0 °F 29.94 in WSW 2.0 mph 7.0 mph 66% 0.00 in FEW
15:30 70.1 °F 57.8 °F 29.94 in South 3.0 mph 8.0 mph 65% 0.00 in FEW
15:45 70.0 °F 58.1 °F 29.94 in WNW 1.0 mph 10.0 mph 66% 0.00 in FEW
16:00 68.9 °F 57.9 °F 29.94 in SE 1.0 mph 7.0 mph 68% 0.00 in FEW
16:15 68.5 °F 57.5 °F 29.92 in ESE 2.0 mph 7.0 mph 68% 0.00 in FEW
16:30 68.1 °F 57.2 °F 29.93 in SSW 1.0 mph 9.0 mph 68% 0.00 in FEW
16:45 67.8 °F 56.4 °F 29.93 in SSW 1.0 mph 7.0 mph 67% 0.00 in FEW
17:00 67.7 °F 56.8 °F 29.94 in Calm   10.0 mph 68% 0.00 in FEW
17:15 67.6 °F 57.1 °F 29.94 in West 1.0 mph 5.0 mph 69% 0.00 in FEW
17:30 67.0 °F 56.9 °F 29.95 in SSW 2.0 mph 6.0 mph 70% 0.00 in FEW
17:45 66.5 °F 56.4 °F 29.95 in WSW 2.0 mph 7.0 mph 70% 0.00 in FEW
18:00 65.7 °F 55.2 °F 29.95 in SE 3.0 mph 6.0 mph 69% 0.00 in FEW
18:15 65.0 °F 53.8 °F 29.94 in WSW 2.0 mph 6.0 mph 67% 0.00 in FEW
18:30 64.3 °F 52.7 °F 29.94 in South 1.0 mph 8.0 mph 66% 0.00 in FEW
18:45 63.7 °F 51.8 °F 29.94 in SE 3.0 mph 7.0 mph 65% 0.00 in FEW
19:00 63.1 °F 51.2 °F 29.95 in SSE 2.0 mph 7.0 mph 65% 0.00 in FEW
19:15 62.9 °F 51.4 °F 29.95 in West 1.0 mph 8.0 mph 66% 0.00 in FEW
19:30 62.5 °F 51.0 °F 29.95 in WSW 1.0 mph 5.0 mph 66% 0.00 in FEW
19:45 62.2 °F 51.1 °F 29.96 in Calm   5.0 mph 67% 0.00 in FEW
20:15 61.4 °F 51.5 °F 29.96 in Calm   2.0 mph 70% 0.00 in FEW
20:30 61.0 °F 51.5 °F 29.95 in West 1.0 mph 3.0 mph 71% 0.00 in FEW
20:45 60.5 °F 51.4 °F 29.95 in Calm   4.0 mph 72% 0.00 in FEW
21:00 60.2 °F 51.1 °F 29.96 in Calm   2.0 mph 72% 0.00 in FEW
21:15 59.8 °F 51.5 °F 29.95 in Calm   2.0 mph 74% 0.00 in CLR
21:30 59.3 °F 51.4 °F 29.95 in Calm   3.0 mph 75% 0.00 in CLR
21:45 59.2 °F 51.6 °F 29.95 in Calm   2.0 mph 76% 0.00 in CLR
22:00 58.9 °F 51.3 °F 29.94 in Calm   1.0 mph 76% 0.00 in CLR
22:15 58.7 °F 51.5 °F 29.95 in Calm   1.0 mph 77% 0.00 in CLR
22:30 58.4 °F 51.6 °F 29.95 in Calm   1.0 mph 78% 0.00 in CLR
22:45 58.4 °F 51.6 °F 29.94 in Calm   3.0 mph 78% 0.00 in CLR
23:00 58.3 °F 51.5 °F 29.94 in Calm   1.0 mph 78% 0.00 in CLR
23:15 58.2 °F 51.4 °F 29.94 in WNW 1.0 mph 4.0 mph 78% 0.00 in CLR
23:30 58.0 °F 51.5 °F 29.93 in Calm   4.0 mph 79% 0.00 in CLR
23:45 57.8 °F 51.7 °F 29.93 in Calm   3.0 mph 80% 0.00 in CLR
TarryTown NY Weather
Compliments of Weather Underground - 1.5 mb